Airfield :
LOGIN :

Register | Disclaimer

   EN    FR    IT 

 










Legend :    VFR   Marginal VFR   IFR   Intensive IFR   Very Intensive IFR
Visi :
Ceiling :
>= 8 km
>= 3000ft
5 to 8 km
1000 to 3000 ft
1500m to 5 km
500 to 1000 ft
800 to 1500m
200 to 500 ft
< 800m
< 200 ft
Symbols :   Thunderstorms  Fog  Heavy snow  Heavy precipitations  Wind > 20 kt
SIGMETs :     Misc.  Thunderstorms  Icing  Turbulence  Mountain Waves  Volcanic Ashes






- Airport Elevation : 135 ft
- IATA code : TLV


LLBG - Ben Gurion

CURRENT METAR :
  • 070320Z 14005KT 6000 FEW016 21/19 Q1010 TEMPO BKN015

EXPIRED METARs :
  • 070250Z 14005KT 7000 FEW016 22/18 Q1009 TEMPO BKN015
  • 070220Z 12004KT 9000 FEW016 22/18 Q1010 TEMPO BKN015
  • 070150Z VRB03KT 9999 SCT017 22/18 Q1009 TEMPO BKN015
  • 070120Z VRB03KT 9999 SCT017 22/18 Q1009 TEMPO BKN015
  • 070050Z VRB02KT 9999 BKN017 23/19 Q1010 NOSIG

TAF TAF LLBG
Valid from the 07 at 00:00 until the 08 at 00:00 UTC


062309Z 0700/0724 VRB03KT 9999 BKN015
TEMPO 0702/0705 7000 BKN010
BECMG 0706/0708 32010KT CAVOK
BECMG 0718/0720 VRB03KT TX32/0710Z TN20/0703Z
LLLL FIR / Asia



MET'MAP, your aeronautical weather chart ! - Copyright ORBIFLY December 2007 - Disclaimer

ORBIFLY MET'MAP TEAM :

Programming & Development : Alexandra Zaïnal
Concept & original design : Baudouin d'Aumeries
Assistance for programming : Marc-Olivier Méhu
Technical & hardware support : Manuel Goepfert

Contact : metmap@orbifly.com




SOURCES & CREDITS :

   NOAA